Terminal Aerodrome Forecast
Issued by NWS Paducah, KY

Home | Current Version | Previous Version | Text Only | Print | Product List | Glossary On
Versions: 1 2 3 4 5 6 7 8 9 10 11 12 13 14 15 16 17 18 19
000
FTUS43 KPAH 152012 AAB
TAFPAH
TAF AMD
KPAH 152012Z 1520/1618 26009KT 1 1/2SM -SN BR OVC011
      TEMPO 1520/1522 3/4SM -SN BR BKN006 OVC015
     FM152200 32008KT 3SM -SN BR BKN011 OVC045
     FM152330 35011G18KT P6SM BKN019 OVC035
     FM160330 35012G22KT P6SM FEW035 OVC110
     FM160800 35011G18KT P6SM SKC
      TEMPO 1616/1618 BKN018=

USA.gov is the U.S. government's official web portal to all federal, state and local government web resources and services.